Main page
METAR-TAF:

METAR-TAF

Airports :

RAF Benson

Benson, England

latitude: 51-37N, longitude: 001-05W, elevation: 63 m

Current weather observation

The report was made 1 hour and 0 minutes ago, at 06:50 UTC
Wind 8 kt from the South/Southwest
Temperature 15°C
Humidity 82%
Pressure 1002 hPa
Visibility 10 km or more

METAR: EGUB 180650Z AUTO 21008KT 9999 // BKN060/// BKN090/// 15/12 Q1002

Time: 08:50 (07:50 UTC)

Forecast

The report was made 17 hours and 55 minutes ago, at 13:55 UTC
Forecast valid from 17 at 15 UTC to 18 at 09 UTC
Wind 12 kt from the West/Southwest
Visibility 10 km or more
Scattered clouds at a height of 4500 ft

TAF: EGUB 171355Z 1715/1809 25012KT 9999 SCT045

Weather observations and forecasts of more than 4000 airports (METAR and TAF reports).

The available stations are represented by yellow and red dots on the map.

Hover mouse over dot to see the name of the station.

Then click to see weather observations and forecasts.

To change the map : click on the green buttons with a black cross to zoom in, on the green button with a dash to zoom out, or on the green arrows for adjacent maps.


METAR-TAF: